This is the latest recevied weather packets stored in our database for station/object N3SW-13. If no packets are shown the sender has not sent any weather packets the latest 10 day(s).
| Time | Temp. | Humidity | Pressure | Rain* | Wind** | Luminosity | Snow |
|---|---|---|---|---|---|---|---|
| 1777398334 | 16.11° C | 84% | 1017 hPa | 0 mm | - | - | - |
| 1777397430 | 15.56° C | 85% | 1017.4 hPa | 0 mm | - | - | - |
| 1777396528 | 15.56° C | 86% | 1017.6 hPa | 0 mm | - | - | - |
| 1777392916 | 13.89° C | 89% | 1018.1 hPa | 0 mm | - | - | - |
| 1777391111 | 13.33° C | 91% | 1018.2 hPa | 0 mm | - | - | - |
| 1777383907 | 10.56° C | 95% | 1018.6 hPa | 0 mm | - | - | - |
| 1777379458 | 9.44° C | 95% | 1019.8 hPa | 0.25 mm | - | - | - |
| 1777371358 | 8.89° C | 92% | 1022 hPa | 1.02 mm | - | - | - |
| 1777368644 | 9.44° C | 91% | 1021.9 hPa | 0.25 mm | - | - | - |
| 1777366838 | 10° C | 88% | 1020 hPa | 0.25 mm | - | - | - |
| 1777361428 | 11.11° C | 77% | 1021.2 hPa | 0 mm | - | - | - |
| 1777359627 | 11.11° C | 76% | 1020.7 hPa | 0 mm | - | - | - |
| 1777356027 | 12.22° C | 72% | 1021.8 hPa | 0 mm | - | - | - |
| 1777354211 | 12.22° C | 70% | 1022.2 hPa | 0 mm | - | - | - |
| 1777351507 | 12.78° C | 67% | 1022.6 hPa | 0 mm | - | - | - |
| 1777345259 | 13.89° C | 61% | 1022.9 hPa | 0 mm | - | - | - |
| 1777343458 | 13.89° C | 60% | 1022.8 hPa | 0 mm | - | - | - |
| 1777338059 | 15° C | 59% | 1022.4 hPa | 0 mm | - | - | - |
| 1777333553 | 15.56° C | 57% | 1021.5 hPa | 0 mm | - | - | - |
| 1777328147 | 17.78° C | 50% | 1021.4 hPa | 0 mm | - | - | - |
| 1777326346 | 18.33° C | 51% | 1021.7 hPa | 0 mm | - | - | - |
| 1777321841 | 18.33° C | 51% | 1021.7 hPa | 0 mm | - | - | - |
| 1777310119 | 16.67° C | 54% | 1023.6 hPa | 0 mm | - | - | - |
| 1777306509 | 15° C | 57% | 1024.1 hPa | 0 mm | - | - | - |
| 1777302976 | 13.33° C | 60% | 1024.5 hPa | 0 mm | - | - | - |
* Rain latest hour (hover to see other rain measurements)
** Current wind speed in m/s (hover to see current wind gust speed)